Time;durP1;ratioP1;P1;durP2;ratioP2;P2;SDS_P1;SDS_P2;PMS_P1;PMS_P2;Temp;Humidity;BMP_temperature;BMP_pressure;BME280_temperature;BME280_humidity;BME280_pressure;Samples;Min_cycle;Max_cycle;Signal;HPM_P1;HPM_P2
2023/07/25 00:02:13;;;;;;;;;;;12.70;99.90;;;;;;5070792;28;19924;-86
2023/07/25 00:04:39;;;;;;;;;;;12.70;99.90;;;;;;5084076;28;19924;-86
2023/07/25 00:07:05;;;;;;;;;;;12.80;99.90;;;;;;5083019;28;20425;-87
2023/07/25 00:09:30;;;;;;;;;;;12.80;99.90;;;;;;5084760;28;19977;-87
2023/07/25 00:11:56;;;;;;;;;;;12.80;99.90;;;;;;5049438;28;20374;-87
2023/07/25 00:14:21;;;;;;;;;;;12.90;99.90;;;;;;5085190;28;20294;-87
2023/07/25 00:16:47;;;;;;;;;;;12.90;99.90;;;;;;5084577;28;20011;-87
2023/07/25 00:19:12;;;;;;;;;;;12.90;99.90;;;;;;5084869;28;20599;-87
2023/07/25 00:21:38;;;;;;;;;;;12.80;99.90;;;;;;5066731;28;20019;-87
2023/07/25 00:24:04;;;;;;;;;;;12.80;99.90;;;;;;5083187;28;20029;-87
2023/07/25 00:26:29;;;;;;;;;;;12.80;99.90;;;;;;5049706;28;19974;-86
2023/07/25 00:28:55;;;;;;;;;;;12.80;99.90;;;;;;5067053;28;20401;-86
2023/07/25 00:31:20;;;;;;;;;;;12.80;99.90;;;;;;5083883;28;19924;-86
2023/07/25 00:33:46;;;;;;;;;;;12.90;99.90;;;;;;5083229;28;19935;-86
2023/07/25 00:36:11;;;;;;;;;;;12.80;99.90;;;;;;5062029;28;20924;-87
2023/07/25 00:38:37;;;;;;;;;;;12.80;99.90;;;;;;5062019;28;19928;-86
2023/07/25 00:41:02;;;;;;;;;;;12.80;99.90;;;;;;5070389;28;20366;-87
2023/07/25 00:43:28;;;;;;;;;;;12.80;99.90;;;;;;5066007;28;19924;-87
2023/07/25 00:45:54;;;;;;;;;;;12.70;99.90;;;;;;5068235;28;19932;-86
2023/07/25 00:48:19;;;;;;;;;;;12.70;99.90;;;;;;5053336;28;19928;-86
2023/07/25 00:50:45;;;;;;;;;;;12.60;99.90;;;;;;5086232;28;19932;-87
2023/07/25 00:53:12;;;;;;;;;;;12.60;99.90;;;;;;5086461;28;19924;-87
2023/07/25 00:55:37;;;;;;;;;;;12.50;99.90;;;;;;5063126;28;20437;-86
2023/07/25 00:58:03;;;;;;;;;;;12.50;99.90;;;;;;5067138;28;20018;-87
2023/07/25 01:00:29;;;;;;;;;;;12.40;99.90;;;;;;5067090;28;19924;-86
2023/07/25 01:02:54;;;;;;;;;;;12.40;99.90;;;;;;5089718;28;19928;-87
2023/07/25 01:05:20;;;;;;;;;;;12.40;99.90;;;;;;5084968;28;19924;-86
2023/07/25 01:07:46;;;;;;;;;;;12.30;99.90;;;;;;5084081;28;19924;-86
2023/07/25 01:10:12;;;;;;;;;;;12.30;99.90;;;;;;5072747;28;19971;-86
2023/07/25 01:12:38;;;;;;;;;;;12.30;99.90;;;;;;5090687;28;19932;-87
2023/07/25 01:15:04;;;;;;;;;;;12.20;99.90;;;;;;5087306;28;19966;-87
2023/07/25 01:17:29;;;;;;;;;;;12.20;99.90;;;;;;5085919;28;19982;-87
2023/07/25 01:19:55;;;;;;;;;;;12.10;99.90;;;;;;5069424;28;19939;-86
2023/07/25 01:22:22;;;;;;;;;;;12.10;99.90;;;;;;5088323;28;19932;-86
2023/07/25 01:24:48;;;;;;;;;;;12.10;99.90;;;;;;5070725;28;19924;-87
2023/07/25 01:27:14;;;;;;;;;;;12.00;99.90;;;;;;5071268;28;19928;-87
2023/07/25 01:29:39;;;;;;;;;;;12.00;99.90;;;;;;5073597;28;19932;-86
2023/07/25 01:32:05;;;;;;;;;;;12.00;99.90;;;;;;5072668;28;20472;-87
2023/07/25 01:34:31;;;;;;;;;;;12.00;99.90;;;;;;5087662;28;20011;-87
2023/07/25 01:36:56;;;;;;;;;;;11.90;99.90;;;;;;5087712;28;19931;-86
2023/07/25 01:39:22;;;;;;;;;;;11.90;99.90;;;;;;5051858;28;19939;-86
2023/07/25 01:41:47;;;;;;;;;;;11.80;99.90;;;;;;5086950;28;19924;-86
2023/07/25 01:44:13;;;;;;;;;;;11.80;99.90;;;;;;5086934;28;19928;-86
2023/07/25 01:46:40;;;;;;;;;;;11.80;99.90;;;;;;5086598;28;19928;-88
2023/07/25 01:49:05;;;;;;;;;;;11.80;99.90;;;;;;5069042;28;19928;-87
2023/07/25 01:51:31;;;;;;;;;;;11.70;99.90;;;;;;5068122;28;19931;-86
2023/07/25 01:53:58;;;;;;;;;;;11.70;99.90;;;;;;5085423;28;19947;-87
2023/07/25 01:56:24;;;;;;;;;;;11.70;99.90;;;;;;5085204;28;19927;-86
2023/07/25 01:58:50;;;;;;;;;;;11.70;99.90;;;;;;5087054;28;20023;-87
2023/07/25 02:01:15;;;;;;;;;;;11.70;99.90;;;;;;5091781;28;20039;-86
2023/07/25 02:03:41;;;;;;;;;;;11.70;99.90;;;;;;5093400;28;20382;-87
2023/07/25 02:06:07;;;;;;;;;;;11.70;99.90;;;;;;5075606;28;19928;-87
2023/07/25 02:08:32;;;;;;;;;;;11.70;99.90;;;;;;5075628;28;19978;-85
2023/07/25 02:10:58;;;;;;;;;;;11.70;99.90;;;;;;5092622;28;20378;-85
2023/07/25 02:13:23;;;;;;;;;;;11.80;99.90;;;;;;5075412;28;19947;-86
2023/07/25 02:15:49;;;;;;;;;;;11.80;99.90;;;;;;5075586;28;19928;-85
2023/07/25 02:18:14;;;;;;;;;;;11.80;99.90;;;;;;5070853;28;19932;-86
2023/07/25 02:20:40;;;;;;;;;;;11.80;99.90;;;;;;5066043;28;19924;-86
2023/07/25 02:23:06;;;;;;;;;;;11.80;99.90;;;;;;5086686;28;20022;-88
2023/07/25 02:25:31;;;;;;;;;;;11.90;99.90;;;;;;5084491;28;19978;-86
2023/07/25 02:27:57;;;;;;;;;;;11.90;99.90;;;;;;5051246;28;19934;-86
2023/07/25 02:30:23;;;;;;;;;;;12.00;99.90;;;;;;5086320;28;19943;-87
2023/07/25 02:32:48;;;;;;;;;;;12.00;99.90;;;;;;5060444;28;19932;-86
2023/07/25 02:35:17;;;;;;;;;;;12.10;99.90;;;;;;5085138;28;19963;-86
2023/07/25 02:37:42;;;;;;;;;;;12.10;99.90;;;;;;5085845;28;20007;-87
2023/07/25 02:40:08;;;;;;;;;;;12.20;99.90;;;;;;5084884;28;20003;-87
2023/07/25 02:42:33;;;;;;;;;;;12.20;99.90;;;;;;5067298;28;20700;-87
2023/07/25 02:44:59;;;;;;;;;;;12.20;99.90;;;;;;5066759;28;19932;-87
2023/07/25 02:47:25;;;;;;;;;;;12.20;99.90;;;;;;5051937;28;19928;-88
2023/07/25 02:49:50;;;;;;;;;;;12.20;99.90;;;;;;5052175;28;20315;-87
2023/07/25 02:52:16;;;;;;;;;;;12.30;99.90;;;;;;5052784;28;19931;-87
2023/07/25 02:54:42;;;;;;;;;;;12.30;99.90;;;;;;5083965;28;19924;-87
2023/07/25 02:57:08;;;;;;;;;;;12.40;99.90;;;;;;5084072;28;19958;-87
2023/07/25 02:59:33;;;;;;;;;;;12.40;99.90;;;;;;5081167;28;19967;-87
2023/07/25 03:01:59;;;;;;;;;;;12.40;99.90;;;;;;5083004;28;19924;-86
2023/07/25 03:04:24;;;;;;;;;;;12.50;99.90;;;;;;5066709;28;20066;-86
2023/07/25 03:06:50;;;;;;;;;;;12.50;99.90;;;;;;5049173;28;19928;-87
2023/07/25 03:09:15;;;;;;;;;;;12.50;99.90;;;;;;5084467;28;19928;-86
2023/07/25 03:11:41;;;;;;;;;;;12.50;99.90;;;;;;5084103;28;19924;-87
2023/07/25 03:14:06;;;;;;;;;;;12.50;99.90;;;;;;5084511;28;19979;-86
2023/07/25 03:16:32;;;;;;;;;;;12.50;99.90;;;;;;5070912;28;19977;-87
2023/07/25 03:18:57;;;;;;;;;;;12.60;99.90;;;;;;5087499;28;19928;-87
2023/07/25 03:21:23;;;;;;;;;;;12.60;99.90;;;;;;5064569;28;19974;-86
2023/07/25 03:23:49;;;;;;;;;;;12.60;99.90;;;;;;5082996;28;19929;-86
2023/07/25 03:26:14;;;;;;;;;;;12.60;99.90;;;;;;5085472;28;19927;-86
2023/07/25 03:28:40;;;;;;;;;;;12.60;99.90;;;;;;5083578;28;19950;-86
2023/07/25 03:31:06;;;;;;;;;;;12.60;99.90;;;;;;5050162;28;19928;-86
2023/07/25 03:33:32;;;;;;;;;;;12.60;99.90;;;;;;5084770;28;19963;-86
2023/07/25 03:35:57;;;;;;;;;;;12.60;99.90;;;;;;5082337;28;20378;-88
2023/07/25 03:38:23;;;;;;;;;;;12.60;99.90;;;;;;5066444;28;19959;-87
2023/07/25 03:40:48;;;;;;;;;;;12.60;99.90;;;;;;5065059;28;19928;-86
2023/07/25 03:43:14;;;;;;;;;;;12.70;99.90;;;;;;5069018;28;20362;-86
2023/07/25 03:45:40;;;;;;;;;;;12.70;99.90;;;;;;5083559;28;19924;-87
2023/07/25 03:48:05;;;;;;;;;;;12.80;99.90;;;;;;5085103;28;19928;-86
2023/07/25 03:50:31;;;;;;;;;;;12.80;99.90;;;;;;5064556;28;19928;-86
2023/07/25 03:52:58;;;;;;;;;;;12.80;99.90;;;;;;5061144;28;19962;-87
2023/07/25 03:55:23;;;;;;;;;;;12.90;99.90;;;;;;5064452;28;19932;-87
2023/07/25 03:57:49;;;;;;;;;;;12.90;99.90;;;;;;5064116;28;19924;-87
2023/07/25 04:00:14;;;;;;;;;;;12.90;99.90;;;;;;5084162;28;19928;-86
2023/07/25 04:02:40;;;;;;;;;;;12.90;99.90;;;;;;5086869;28;19963;-87
2023/07/25 04:05:07;;;;;;;;;;;13.00;99.90;;;;;;5085028;28;19970;-86
2023/07/25 04:07:34;;;;;;;;;;;13.00;99.90;;;;;;5065987;28;19959;-86
2023/07/25 04:10:00;;;;;;;;;;;13.00;99.90;;;;;;5068088;28;20340;-88
2023/07/25 04:12:25;;;;;;;;;;;13.10;99.90;;;;;;5084931;28;19932;-87
2023/07/25 04:14:51;;;;;;;;;;;13.10;99.90;;;;;;5068960;28;20019;-87
2023/07/25 04:17:16;;;;;;;;;;;13.10;99.90;;;;;;5090426;28;20040;-86
2023/07/25 04:19:42;;;;;;;;;;;13.10;99.90;;;;;;5091626;28;20307;-87
2023/07/25 04:22:07;;;;;;;;;;;13.10;99.90;;;;;;5090346;28;19924;-87
2023/07/25 04:24:33;;;;;;;;;;;13.10;99.90;;;;;;5072763;28;19928;-86
2023/07/25 04:26:58;;;;;;;;;;;13.10;99.90;;;;;;5072657;28;19963;-86
2023/07/25 04:29:24;;;;;;;;;;;13.20;99.90;;;;;;5091062;28;20278;-86
2023/07/25 04:31:49;;;;;;;;;;;13.20;99.90;;;;;;5066937;28;19931;-86
2023/07/25 04:34:15;;;;;;;;;;;13.30;99.90;;;;;;5070843;28;19981;-87
2023/07/25 04:36:41;;;;;;;;;;;13.30;99.90;;;;;;5090214;28;20393;-86
2023/07/25 04:39:06;;;;;;;;;;;13.30;99.90;;;;;;5070517;28;19924;-86
2023/07/25 04:41:32;;;;;;;;;;;13.40;99.90;;;;;;5089267;28;19924;-87
2023/07/25 04:43:57;;;;;;;;;;;13.40;99.90;;;;;;5084050;28;19924;-87
2023/07/25 04:46:23;;;;;;;;;;;13.50;99.90;;;;;;5084559;28;19938;-86
2023/07/25 04:48:48;;;;;;;;;;;13.50;99.90;;;;;;5066231;28;20011;-87
2023/07/25 04:51:14;;;;;;;;;;;13.50;99.90;;;;;;5083373;28;19931;-87
2023/07/25 04:53:40;;;;;;;;;;;13.60;99.90;;;;;;5081294;28;20413;-87
2023/07/25 04:56:05;;;;;;;;;;;13.60;99.90;;;;;;5063427;28;19963;-87
2023/07/25 04:58:31;;;;;;;;;;;13.60;99.90;;;;;;5051219;28;19924;-86
2023/07/25 05:00:56;;;;;;;;;;;13.70;99.90;;;;;;5059237;28;19928;-86
2023/07/25 05:03:22;;;;;;;;;;;13.80;99.90;;;;;;5066546;28;19928;-87
2023/07/25 05:05:50;;;;;;;;;;;13.90;99.90;;;;;;5064392;28;19971;-86
2023/07/25 05:08:16;;;;;;;;;;;13.90;99.90;;;;;;5048380;28;19932;-86
2023/07/25 05:10:42;;;;;;;;;;;14.00;99.90;;;;;;5060525;28;19939;-86
2023/07/25 05:13:07;;;;;;;;;;;14.00;99.90;;;;;;5081768;28;19924;-87
2023/07/25 05:15:33;;;;;;;;;;;14.00;99.90;;;;;;5060360;28;19932;-87
2023/07/25 05:17:59;;;;;;;;;;;14.10;99.90;;;;;;5078306;28;20378;-87
2023/07/25 05:20:24;;;;;;;;;;;14.20;99.90;;;;;;5071584;28;19930;-87
2023/07/25 05:22:50;;;;;;;;;;;14.20;99.90;;;;;;5070943;28;19928;-87
2023/07/25 05:25:15;;;;;;;;;;;14.30;99.90;;;;;;5089240;28;19945;-86
2023/07/25 05:27:41;;;;;;;;;;;14.40;99.90;;;;;;5074961;28;19924;-86
2023/07/25 05:30:07;;;;;;;;;;;14.60;99.90;;;;;;5068800;28;19931;-87
2023/07/25 05:32:33;;;;;;;;;;;14.70;99.90;;;;;;5068236;28;19935;-86
2023/07/25 05:34:58;;;;;;;;;;;14.80;99.90;;;;;;5066948;28;20315;-86
2023/07/25 05:37:32;;;;;;;;;;;15.00;99.90;;;;;;5067068;28;20043;-86
2023/07/25 05:39:58;;;;;;;;;;;15.20;99.90;;;;;;5087398;28;19924;-86
2023/07/25 05:42:23;;;;;;;;;;;15.30;99.90;;;;;;5085894;28;20268;-86
2023/07/25 05:44:49;;;;;;;;;;;15.30;99.90;;;;;;5065632;28;20003;-87
2023/07/25 05:47:14;;;;;;;;;;;15.30;99.90;;;;;;5084223;28;19928;-87
2023/07/25 05:49:40;;;;;;;;;;;15.40;99.90;;;;;;5087748;28;20321;-86
2023/07/25 05:52:06;;;;;;;;;;;15.60;99.90;;;;;;5084997;28;20019;-87
2023/07/25 05:54:31;;;;;;;;;;;15.90;99.90;;;;;;5086942;28;19931;-88
2023/07/25 05:56:57;;;;;;;;;;;16.30;99.90;;;;;;5081178;28;19981;-88
2023/07/25 05:59:22;;;;;;;;;;;16.80;99.90;;;;;;5070807;28;19924;-87
2023/07/25 06:01:48;;;;;;;;;;;17.30;99.90;;;;;;5068743;28;19986;-86
2023/07/25 06:04:15;;;;;;;;;;;17.80;99.90;;;;;;5070219;28;19938;-87
2023/07/25 06:06:40;;;;;;;;;;;18.10;99.90;;;;;;5085853;28;20049;-87
2023/07/25 06:09:06;;;;;;;;;;;18.20;99.90;;;;;;5092369;28;20037;-87
2023/07/25 06:11:32;;;;;;;;;;;18.30;99.90;;;;;;5074666;28;19935;-86
2023/07/25 06:13:57;;;;;;;;;;;18.50;99.90;;;;;;5069930;28;20414;-84
2023/07/25 06:16:23;;;;;;;;;;;18.60;99.90;;;;;;5085832;28;19928;-86
2023/07/25 06:18:48;;;;;;;;;;;18.50;99.90;;;;;;5054829;28;20359;-86
2023/07/25 06:21:14;;;;;;;;;;;18.40;99.90;;;;;;5069147;28;20321;-86
2023/07/25 06:23:39;;;;;;;;;;;18.30;99.90;;;;;;5087501;28;19932;-86
2023/07/25 06:26:05;;;;;;;;;;;18.20;99.90;;;;;;5082386;28;19932;-86
2023/07/25 06:28:31;;;;;;;;;;;18.30;99.90;;;;;;5062876;28;19924;-85
2023/07/25 06:30:56;;;;;;;;;;;18.50;99.90;;;;;;5061118;28;20337;-86
2023/07/25 06:33:22;;;;;;;;;;;18.80;99.90;;;;;;5068825;28;20358;-86
2023/07/25 06:35:47;;;;;;;;;;;19.00;99.90;;;;;;5085596;28;19935;-86
2023/07/25 06:38:13;;;;;;;;;;;19.30;99.90;;;;;;5080040;28;19939;-86
2023/07/25 06:40:38;;;;;;;;;;;19.60;99.90;;;;;;5091957;28;19928;-88
2023/07/25 06:43:04;;;;;;;;;;;19.80;99.90;;;;;;5069904;28;20037;-87
2023/07/25 06:45:30;;;;;;;;;;;19.80;99.90;;;;;;5063570;28;19933;-86
2023/07/25 06:47:55;;;;;;;;;;;19.90;99.90;;;;;;5065988;28;20686;-86
2023/07/25 06:50:21;;;;;;;;;;;20.10;99.90;;;;;;5068845;28;19924;-85
2023/07/25 06:52:46;;;;;;;;;;;20.40;99.90;;;;;;5066261;28;19974;-87
2023/07/25 06:55:12;;;;;;;;;;;20.50;99.90;;;;;;5090867;28;19932;-86
2023/07/25 06:57:38;;;;;;;;;;;20.60;99.90;;;;;;5068144;28;19932;-86
2023/07/25 07:00:04;;;;;;;;;;;20.70;99.90;;;;;;5089687;28;20379;-86
2023/07/25 07:02:29;;;;;;;;;;;20.60;99.90;;;;;;5073270;28;19955;-86
2023/07/25 07:04:56;;;;;;;;;;;20.70;99.90;;;;;;5092245;28;19928;-87
2023/07/25 07:07:21;;;;;;;;;;;20.90;99.90;;;;;;5072202;28;20020;-88
2023/07/25 07:09:47;;;;;;;;;;;21.10;99.90;;;;;;5069475;28;20003;-87
2023/07/25 07:12:14;;;;;;;;;;;21.30;99.90;;;;;;5070552;28;19928;-85
2023/07/25 07:14:40;;;;;;;;;;;21.20;99.90;;;;;;5079364;28;19928;-84
2023/07/25 07:17:05;;;;;;;;;;;21.00;99.90;;;;;;5065328;28;19928;-87
2023/07/25 07:19:31;;;;;;;;;;;20.80;99.90;;;;;;5085112;28;19935;-88
2023/07/25 07:21:56;;;;;;;;;;;20.80;99.90;;;;;;5095122;28;20427;-85
2023/07/25 07:24:22;;;;;;;;;;;21.20;99.90;;;;;;5075767;28;19938;-84
2023/07/25 07:26:47;;;;;;;;;;;21.70;99.90;;;;;;5094123;28;20072;-85
2023/07/25 07:29:13;;;;;;;;;;;22.00;99.90;;;;;;5085473;28;19925;-87
2023/07/25 07:31:39;;;;;;;;;;;22.20;99.90;;;;;;5073917;28;19928;-87
2023/07/25 07:34:14;;;;;;;;;;;22.20;99.90;;;;;;5073978;28;20271;-85
2023/07/25 07:36:43;;;;;;;;;;;22.20;99.90;;;;;;5091714;28;19931;-86
2023/07/25 07:39:09;;;;;;;;;;;22.10;99.90;;;;;;5073529;28;19924;-85
2023/07/25 07:41:35;;;;;;;;;;;22.00;99.90;;;;;;5090866;28;20366;-87
2023/07/25 07:44:00;;;;;;;;;;;22.00;99.90;;;;;;5091987;28;19950;-87
2023/07/25 07:46:28;;;;;;;;;;;22.00;96.00;;;;;;5074166;28;19928;-86
2023/07/25 07:48:53;;;;;;;;;;;22.10;99.90;;;;;;5074942;28;19924;-87
2023/07/25 07:51:19;;;;;;;;;;;22.20;99.90;;;;;;5089683;28;20428;-86
2023/07/25 07:53:44;;;;;;;;;;;22.30;97.40;;;;;;5073628;28;20030;-87
2023/07/25 07:56:12;;;;;;;;;;;22.50;96.40;;;;;;5073120;28;19931;-86
2023/07/25 07:58:38;;;;;;;;;;;22.50;94.20;;;;;;5073991;28;19962;-86
2023/07/25 08:01:03;;;;;;;;;;;22.30;99.90;;;;;;5091540;28;19964;-87
2023/07/25 08:03:29;;;;;;;;;;;22.20;98.40;;;;;;5090296;28;19934;-86
2023/07/25 08:05:57;;;;;;;;;;;22.40;99.90;;;;;;5091648;28;20454;-86
2023/07/25 08:08:23;;;;;;;;;;;22.50;95.10;;;;;;5091380;28;19975;-86
2023/07/25 08:10:49;;;;;;;;;;;22.60;95.60;;;;;;5073737;28;19971;-86
2023/07/25 08:13:14;;;;;;;;;;;22.50;98.20;;;;;;5090229;28;19924;-86
2023/07/25 08:15:40;;;;;;;;;;;22.10;95.20;;;;;;5073959;28;19928;-85
2023/07/25 08:18:06;;;;;;;;;;;21.60;96.30;;;;;;5073997;28;19932;-86
2023/07/25 08:20:33;;;;;;;;;;;21.30;99.10;;;;;;5038193;28;20201;-89
2023/07/25 08:22:59;;;;;;;;;;;21.30;99.00;;;;;;5090816;28;20365;-86
2023/07/25 08:25:24;;;;;;;;;;;21.60;97.80;;;;;;5067025;28;20747;-86
2023/07/25 08:27:50;;;;;;;;;;;21.90;99.90;;;;;;5073661;28;20015;-87
2023/07/25 08:30:15;;;;;;;;;;;22.10;98.70;;;;;;5091378;28;19973;-87
2023/07/25 08:32:41;;;;;;;;;;;21.90;93.90;;;;;;5073738;28;20358;-88
2023/07/25 08:35:07;;;;;;;;;;;21.50;99.90;;;;;;5090884;28;19924;-87
2023/07/25 08:37:32;;;;;;;;;;;21.10;97.50;;;;;;5052947;28;19935;-87
2023/07/25 08:39:58;;;;;;;;;;;21.20;99.90;;;;;;5077813;28;19930;-88
2023/07/25 08:42:24;;;;;;;;;;;21.30;99.40;;;;;;5088152;28;20016;-85
2023/07/25 08:44:50;;;;;;;;;;;21.50;98.30;;;;;;5083310;28;19928;-85
2023/07/25 08:47:17;;;;;;;;;;;21.50;99.90;;;;;;5071645;28;19928;-85
2023/07/25 08:49:45;;;;;;;;;;;21.30;99.90;;;;;;5082066;28;20001;-85
2023/07/25 08:52:12;;;;;;;;;;;21.20;99.90;;;;;;5091057;28;19924;-85
2023/07/25 08:54:41;;;;;;;;;;;21.30;99.90;;;;;;5069949;28;19924;-89
2023/07/25 08:57:07;;;;;;;;;;;21.60;99.70;;;;;;5090836;28;19932;-84
2023/07/25 08:59:32;;;;;;;;;;;22.00;99.90;;;;;;5090100;28;20717;-84
2023/07/25 09:01:58;;;;;;;;;;;22.30;98.30;;;;;;5089850;28;19924;-85
2023/07/25 09:04:24;;;;;;;;;;;22.60;97.80;;;;;;5094578;28;20278;-85
2023/07/25 09:06:50;;;;;;;;;;;22.80;99.00;;;;;;5074433;28;20290;-86
2023/07/25 09:09:16;;;;;;;;;;;22.90;98.50;;;;;;5076034;28;19939;-84
2023/07/25 09:11:42;;;;;;;;;;;22.80;96.20;;;;;;5091651;28;19928;-87
2023/07/25 09:14:08;;;;;;;;;;;22.70;94.50;;;;;;5089221;28;19925;-83
2023/07/25 09:16:34;;;;;;;;;;;22.50;93.40;;;;;;5073131;28;19931;-85
2023/07/25 09:18:59;;;;;;;;;;;22.50;95.40;;;;;;5094237;28;19927;-85
2023/07/25 09:21:25;;;;;;;;;;;22.50;95.00;;;;;;5070454;28;19924;-85
2023/07/25 09:23:54;;;;;;;;;;;22.40;94.80;;;;;;5094627;28;20022;-90
2023/07/25 09:26:24;;;;;;;;;;;22.50;94.30;;;;;;5088605;28;19945;-84
2023/07/25 09:28:51;;;;;;;;;;;22.70;95.00;;;;;;5073597;28;20376;-88
2023/07/25 09:31:17;;;;;;;;;;;22.70;92.10;;;;;;5090080;28;20052;-85
2023/07/25 09:33:45;;;;;;;;;;;22.30;93.30;;;;;;5090115;28;19924;-85
2023/07/25 09:36:11;;;;;;;;;;;22.20;93.60;;;;;;5085581;28;20481;-84
2023/07/25 09:38:46;;;;;;;;;;;22.20;93.80;;;;;;5087418;28;19935;-84
2023/07/25 09:41:11;;;;;;;;;;;22.30;94.20;;;;;;5064332;28;19932;-90
2023/07/25 09:43:38;;;;;;;;;;;22.60;93.00;;;;;;5072543;28;20056;-84
2023/07/25 09:46:04;;;;;;;;;;;22.50;93.00;;;;;;5090251;28;19935;-85
2023/07/25 09:48:31;;;;;;;;;;;22.30;91.10;;;;;;5070208;28;19928;-86
2023/07/25 09:50:57;;;;;;;;;;;22.30;90.70;;;;;;5057451;28;19946;-85
2023/07/25 09:53:23;;;;;;;;;;;22.60;92.60;;;;;;5085981;28;20282;-85
2023/07/25 09:55:48;;;;;;;;;;;22.80;92.30;;;;;;5074973;28;19928;-89
2023/07/25 09:58:14;;;;;;;;;;;22.80;88.70;;;;;;5073337;28;19924;-87
2023/07/25 10:00:40;;;;;;;;;;;22.60;94.90;;;;;;5071632;28;19924;-84
2023/07/25 10:03:08;;;;;;;;;;;22.50;94.00;;;;;;5073114;28;19928;-85
2023/07/25 10:05:34;;;;;;;;;;;22.70;85.10;;;;;;5084751;28;19930;-85
2023/07/25 10:08:00;;;;;;;;;;;22.80;82.60;;;;;;5091707;28;20046;-85
2023/07/25 10:10:26;;;;;;;;;;;23.00;90.10;;;;;;5089998;28;19975;-84
2023/07/25 10:12:53;;;;;;;;;;;23.10;83.90;;;;;;5091078;28;20027;-83
2023/07/25 10:15:18;;;;;;;;;;;23.30;80.00;;;;;;5091064;28;20309;-85
2023/07/25 10:17:45;;;;;;;;;;;23.50;81.90;;;;;;5089285;28;19924;-83
2023/07/25 10:20:19;;;;;;;;;;;23.60;78.10;;;;;;5090062;28;19968;-85
2023/07/25 10:22:44;;;;;;;;;;;23.60;85.80;;;;;;5079349;28;20001;-85
2023/07/25 10:25:11;;;;;;;;;;;23.80;76.50;;;;;;5092201;28;20424;-85
2023/07/25 10:27:36;;;;;;;;;;;23.50;79.30;;;;;;5090902;28;19928;-86
2023/07/25 10:30:02;;;;;;;;;;;23.00;83.10;;;;;;5088205;28;20356;-85
2023/07/25 10:32:44;;;;;;;;;;;22.60;81.50;;;;;;5090811;28;19930;-85
2023/07/25 10:35:10;;;;;;;;;;;22.20;81.30;;;;;;5037891;28;20375;-84
2023/07/25 10:37:41;;;;;;;;;;;21.90;87.20;;;;;;5092473;28;19932;-87
2023/07/25 10:40:16;;;;;;;;;;;22.00;89.70;;;;;;5093065;28;19935;-88
2023/07/25 10:42:50;;;;;;;;;;;22.30;90.10;;;;;;5071642;28;19924;-86
2023/07/25 10:45:19;;;;;;;;;;;22.70;82.00;;;;;;5074982;28;19932;-86
2023/07/25 10:47:45;;;;;;;;;;;22.90;88.20;;;;;;5078014;28;20003;-88
2023/07/25 10:50:11;;;;;;;;;;;22.70;80.80;;;;;;5094365;28;19931;-86
2023/07/25 10:52:43;;;;;;;;;;;22.40;84.10;;;;;;5094318;28;19924;-86
2023/07/25 10:55:10;;;;;;;;;;;22.00;83.60;;;;;;5073797;28;19924;-86
2023/07/25 10:57:35;;;;;;;;;;;21.60;87.10;;;;;;5093025;28;19928;-87
2023/07/25 11:00:04;;;;;;;;;;;21.60;90.30;;;;;;5092014;28;19935;-85
2023/07/25 11:02:34;;;;;;;;;;;21.70;91.70;;;;;;5074639;28;19935;-86
2023/07/25 11:05:12;;;;;;;;;;;22.20;88.10;;;;;;5072853;28;19955;-85
2023/07/25 11:07:47;;;;;;;;;;;22.30;90.70;;;;;;5093300;28;19924;-86
2023/07/25 11:10:19;;;;;;;;;;;22.20;86.10;;;;;;5093319;28;20011;-84
2023/07/25 11:12:49;;;;;;;;;;;22.00;83.20;;;;;;5092551;28;19938;-85
2023/07/25 11:15:14;;;;;;;;;;;21.90;88.10;;;;;;5072951;28;20028;-87
2023/07/25 11:17:41;;;;;;;;;;;22.10;89.80;;;;;;5073942;28;19937;-88
2023/07/25 11:20:18;;;;;;;;;;;22.40;89.50;;;;;;5091981;28;19928;-85
2023/07/25 11:22:44;;;;;;;;;;;22.90;87.00;;;;;;5091389;28;19967;-87
2023/07/25 11:25:09;;;;;;;;;;;22.80;82.60;;;;;;5091896;28;19931;-84
2023/07/25 11:27:40;;;;;;;;;;;22.50;86.50;;;;;;5056682;28;19925;-86
2023/07/25 11:30:13;;;;;;;;;;;22.10;86.40;;;;;;5074939;28;20015;-86
2023/07/25 11:32:39;;;;;;;;;;;21.60;87.50;;;;;;5091588;28;19947;-86
2023/07/25 11:35:06;;;;;;;;;;;21.40;88.40;;;;;;5091817;28;19989;-85
2023/07/25 11:37:32;;;;;;;;;;;21.40;91.40;;;;;;5055574;28;20263;-85
2023/07/25 11:40:09;;;;;;;;;;;21.60;91.00;;;;;;5092162;28;19924;-87
2023/07/25 11:42:35;;;;;;;;;;;22.00;89.20;;;;;;5091475;28;19935;-86
2023/07/25 11:45:01;;;;;;;;;;;22.40;87.40;;;;;;5074476;28;20382;-85
2023/07/25 11:47:27;;;;;;;;;;;22.60;81.80;;;;;;5090474;28;19924;-85
2023/07/25 11:49:52;;;;;;;;;;;22.80;87.80;;;;;;5071849;28;20007;-86
2023/07/25 11:52:18;;;;;;;;;;;22.80;83.80;;;;;;5073303;28;19931;-84
2023/07/25 11:54:44;;;;;;;;;;;22.70;82.40;;;;;;5056196;28;19931;-88
2023/07/25 11:57:11;;;;;;;;;;;22.70;82.70;;;;;;5073489;28;19927;-86
2023/07/25 11:59:40;;;;;;;;;;;22.80;79.50;;;;;;5072924;28;20296;-85
2023/07/25 12:02:06;;;;;;;;;;;22.80;80.00;;;;;;5092074;28;19927;-87
2023/07/25 12:04:31;;;;;;;;;;;23.00;80.70;;;;;;5091800;28;19931;-85
2023/07/25 12:06:58;;;;;;;;;;;23.20;79.20;;;;;;5091717;28;20435;-85
2023/07/25 12:09:27;;;;;;;;;;;23.00;74.10;;;;;;5091230;28;19967;-85
2023/07/25 12:11:53;;;;;;;;;;;22.70;80.10;;;;;;5093141;28;20375;-85
2023/07/25 12:14:18;;;;;;;;;;;22.30;79.30;;;;;;5075911;28;19928;-85
2023/07/25 12:16:44;;;;;;;;;;;22.00;79.10;;;;;;5089016;28;20442;-86
2023/07/25 12:19:11;;;;;;;;;;;21.60;82.30;;;;;;5072168;28;19928;-87
2023/07/25 12:21:38;;;;;;;;;;;21.30;85.40;;;;;;5088114;28;19928;-86
2023/07/25 12:24:09;;;;;;;;;;;20.90;86.90;;;;;;5068955;28;21131;-87
2023/07/25 12:26:41;;;;;;;;;;;20.70;87.90;;;;;;5071905;28;20343;-84
2023/07/25 12:29:11;;;;;;;;;;;20.50;89.10;;;;;;5072968;28;20011;-86
2023/07/25 12:31:37;;;;;;;;;;;20.50;88.80;;;;;;5068197;28;20286;-86
2023/07/25 12:34:02;;;;;;;;;;;20.60;91.10;;;;;;5091473;28;19925;-87
2023/07/25 12:36:28;;;;;;;;;;;20.70;91.40;;;;;;5075243;28;19959;-87
2023/07/25 12:38:53;;;;;;;;;;;20.80;92.30;;;;;;5074180;28;19924;-86
2023/07/25 12:41:19;;;;;;;;;;;21.00;92.00;;;;;;5073377;28;19928;-86
2023/07/25 12:43:45;;;;;;;;;;;21.00;90.60;;;;;;5074205;28;19929;-87
2023/07/25 12:46:10;;;;;;;;;;;21.10;90.10;;;;;;5076023;28;19932;-87
2023/07/25 12:48:36;;;;;;;;;;;21.20;90.50;;;;;;5075741;28;19932;-85
2023/07/25 12:51:02;;;;;;;;;;;21.40;90.80;;;;;;5074350;28;19925;-87
2023/07/25 12:53:27;;;;;;;;;;;21.50;90.70;;;;;;5067640;28;19929;-85
2023/07/25 12:55:53;;;;;;;;;;;21.60;89.30;;;;;;5074206;28;20396;-84
2023/07/25 12:58:18;;;;;;;;;;;21.50;90.00;;;;;;5077308;28;19924;-85
2023/07/25 13:00:44;;;;;;;;;;;21.40;91.10;;;;;;5071616;28;19929;-84
2023/07/25 13:03:10;;;;;;;;;;;21.30;90.80;;;;;;5072864;28;20121;-86
2023/07/25 13:05:35;;;;;;;;;;;21.20;92.30;;;;;;5073768;28;20437;-86
2023/07/25 13:08:01;;;;;;;;;;;21.30;91.70;;;;;;5072276;28;19936;-87
2023/07/25 13:10:27;;;;;;;;;;;21.10;91.70;;;;;;5072394;28;20436;-85
2023/07/25 13:12:53;;;;;;;;;;;20.90;93.00;;;;;;5073724;28;19929;-86
2023/07/25 13:15:18;;;;;;;;;;;20.70;94.10;;;;;;5027249;28;20023;-87
2023/07/25 13:17:44;;;;;;;;;;;20.60;94.20;;;;;;5069452;28;19924;-85
2023/07/25 13:20:09;;;;;;;;;;;20.40;94.90;;;;;;5073723;28;20819;-87
2023/07/25 13:22:35;;;;;;;;;;;20.30;94.20;;;;;;5072023;28;19925;-86
2023/07/25 13:25:02;;;;;;;;;;;20.10;95.00;;;;;;5076198;28;20379;-85
2023/07/25 13:27:28;;;;;;;;;;;19.90;96.10;;;;;;5073917;28;19933;-86
2023/07/25 13:29:54;;;;;;;;;;;19.90;96.10;;;;;;5072170;28;19935;-85
2023/07/25 13:32:20;;;;;;;;;;;19.80;95.90;;;;;;5070660;28;19928;-84
2023/07/25 13:34:46;;;;;;;;;;;19.60;96.50;;;;;;5074285;28;20414;-87
2023/07/25 13:37:12;;;;;;;;;;;19.50;96.50;;;;;;5072133;28;19970;-87
2023/07/25 13:39:37;;;;;;;;;;;19.40;97.30;;;;;;5072229;28;19924;-88
2023/07/25 13:42:03;;;;;;;;;;;19.20;97.70;;;;;;5070649;28;19925;-87
2023/07/25 13:44:28;;;;;;;;;;;19.10;97.90;;;;;;5057221;28;19979;-86
2023/07/25 13:46:54;;;;;;;;;;;19.00;97.60;;;;;;5074538;28;19929;-87
2023/07/25 13:49:20;;;;;;;;;;;18.90;97.30;;;;;;5071201;28;19931;-85
2023/07/25 13:51:45;;;;;;;;;;;18.80;97.60;;;;;;5077560;28;19939;-85
2023/07/25 13:54:13;;;;;;;;;;;18.70;97.80;;;;;;5074380;28;19924;-85
2023/07/25 13:56:39;;;;;;;;;;;18.60;98.00;;;;;;5076802;28;19928;-85
2023/07/25 13:59:04;;;;;;;;;;;18.60;97.40;;;;;;5073011;28;19931;-86
2023/07/25 14:01:30;;;;;;;;;;;18.60;98.60;;;;;;5073429;28;20345;-86
2023/07/25 14:03:55;;;;;;;;;;;18.50;98.60;;;;;;5071031;28;19967;-86
2023/07/25 14:06:21;;;;;;;;;;;18.60;98.80;;;;;;5073629;28;19935;-85
2023/07/25 14:08:46;;;;;;;;;;;18.60;98.80;;;;;;5071608;28;19925;-85
2023/07/25 14:11:12;;;;;;;;;;;18.80;99.90;;;;;;5071150;28;19977;-85